sensor_id;sensor_type;location;lat;lon;timestamp;pressure;altitude;pressure_sealevel;temperature;humidity
52957;BME280;38819;42.692;23.342;2023-09-12T00:02:00;95449.66;;;18.15;53.86
52957;BME280;38819;42.692;23.342;2023-09-12T00:04:25;95449.47;;;18.21;54.18
52957;BME280;38819;42.692;23.342;2023-09-12T00:06:51;95443.81;;;18.05;54.27
52957;BME280;38819;42.692;23.342;2023-09-12T00:09:16;95445.34;;;17.93;54.58
52957;BME280;38819;42.692;23.342;2023-09-12T00:11:42;95441.72;;;17.89;54.62
52957;BME280;38819;42.692;23.342;2023-09-12T00:14:09;95451.03;;;17.88;54.78
52957;BME280;38819;42.692;23.342;2023-09-12T00:16:34;95442.53;;;17.81;54.77
52957;BME280;38819;42.692;23.342;2023-09-12T00:19:00;95448.34;;;17.80;55.09
52957;BME280;38819;42.692;23.342;2023-09-12T00:21:25;95443.88;;;17.75;54.91
52957;BME280;38819;42.692;23.342;2023-09-12T00:23:51;95449.91;;;17.81;54.44
52957;BME280;38819;42.692;23.342;2023-09-12T00:26:16;95451.72;;;17.76;55.10
52957;BME280;38819;42.692;23.342;2023-09-12T00:28:41;95455.72;;;17.79;55.22
52957;BME280;38819;42.692;23.342;2023-09-12T00:31:07;95467.78;;;17.78;55.18
52957;BME280;38819;42.692;23.342;2023-09-12T00:33:32;95460.72;;;17.77;55.29
52957;BME280;38819;42.692;23.342;2023-09-12T00:35:58;95462.06;;;17.71;55.32
52957;BME280;38819;42.692;23.342;2023-09-12T00:38:23;95460.06;;;17.80;55.28
52957;BME280;38819;42.692;23.342;2023-09-12T00:40:49;95459.38;;;17.62;55.90
52957;BME280;38819;42.692;23.342;2023-09-12T00:43:15;95466.13;;;17.65;55.60
52957;BME280;38819;42.692;23.342;2023-09-12T00:45:41;95464.09;;;17.53;56.46
52957;BME280;38819;42.692;23.342;2023-09-12T00:48:07;95468.41;;;17.54;55.49
52957;BME280;38819;42.692;23.342;2023-09-12T00:50:34;95470.94;;;17.59;55.79
52957;BME280;38819;42.692;23.342;2023-09-12T00:53:02;95466.00;;;17.52;56.37
52957;BME280;38819;42.692;23.342;2023-09-12T00:55:29;95474.25;;;17.44;56.67
52957;BME280;38819;42.692;23.342;2023-09-12T00:57:57;95472.50;;;17.39;56.89
52957;BME280;38819;42.692;23.342;2023-09-12T01:00:22;95484.25;;;17.39;56.82
52957;BME280;38819;42.692;23.342;2023-09-12T01:02:48;95478.50;;;17.32;57.28
52957;BME280;38819;42.692;23.342;2023-09-12T01:05:15;95471.91;;;17.33;56.90
52957;BME280;38819;42.692;23.342;2023-09-12T01:07:43;95477.19;;;17.38;56.90
52957;BME280;38819;42.692;23.342;2023-09-12T01:10:09;95478.66;;;17.36;56.66
52957;BME280;38819;42.692;23.342;2023-09-12T01:12:34;95471.31;;;17.28;56.99
52957;BME280;38819;42.692;23.342;2023-09-12T01:15:00;95484.91;;;17.36;56.82
52957;BME280;38819;42.692;23.342;2023-09-12T01:17:27;95472.56;;;17.30;57.39
52957;BME280;38819;42.692;23.342;2023-09-12T01:19:53;95473.84;;;17.33;57.25
52957;BME280;38819;42.692;23.342;2023-09-12T01:27:51;95489.66;;;17.18;57.36
52957;BME280;38819;42.692;23.342;2023-09-12T01:30:19;95487.25;;;17.17;57.28
52957;BME280;38819;42.692;23.342;2023-09-12T01:32:45;95485.34;;;17.17;57.30
52957;BME280;38819;42.692;23.342;2023-09-12T01:35:12;95485.34;;;17.17;57.50
52957;BME280;38819;42.692;23.342;2023-09-12T01:37:38;95481.47;;;17.18;57.22
52957;BME280;38819;42.692;23.342;2023-09-12T01:40:04;95493.06;;;17.07;57.37
52957;BME280;38819;42.692;23.342;2023-09-12T01:42:48;95479.47;;;16.98;57.54
52957;BME280;38819;42.692;23.342;2023-09-12T01:45:17;95492.66;;;16.96;57.67
52957;BME280;38819;42.692;23.342;2023-09-12T01:47:45;95502.25;;;16.93;56.99
52957;BME280;38819;42.692;23.342;2023-09-12T01:50:12;95504.19;;;16.93;56.89
52957;BME280;38819;42.692;23.342;2023-09-12T01:52:38;95496.16;;;16.96;56.99
52957;BME280;38819;42.692;23.342;2023-09-12T01:55:04;95494.22;;;16.97;58.14
52957;BME280;38819;42.692;23.342;2023-09-12T01:57:31;95497.28;;;16.95;58.39
52957;BME280;38819;42.692;23.342;2023-09-12T01:59:58;95506.47;;;16.91;58.63
52957;BME280;38819;42.692;23.342;2023-09-12T02:02:23;95502.25;;;16.93;58.52
52957;BME280;38819;42.692;23.342;2023-09-12T02:07:32;95509.34;;;16.77;58.97
52957;BME280;38819;42.692;23.342;2023-09-12T02:09:58;95505.34;;;16.74;58.99
52957;BME280;38819;42.692;23.342;2023-09-12T02:12:23;95506.50;;;16.64;59.36
52957;BME280;38819;42.692;23.342;2023-09-12T02:14:48;95498.31;;;16.64;59.31
52957;BME280;38819;42.692;23.342;2023-09-12T02:17:14;95507.94;;;16.62;59.20
52957;BME280;38819;42.692;23.342;2023-09-12T02:19:39;95509.38;;;16.59;59.24
52957;BME280;38819;42.692;23.342;2023-09-12T02:22:05;95503.97;;;16.51;59.55
52957;BME280;38819;42.692;23.342;2023-09-12T02:24:30;95503.47;;;16.57;59.20
52957;BME280;38819;42.692;23.342;2023-09-12T02:26:55;95500.56;;;16.54;59.51
52957;BME280;38819;42.692;23.342;2023-09-12T02:29:21;95504.75;;;16.51;59.30
52957;BME280;38819;42.692;23.342;2023-09-12T02:31:46;95503.97;;;16.51;59.19
52957;BME280;38819;42.692;23.342;2023-09-12T02:34:12;95507.78;;;16.49;59.17
52957;BME280;38819;42.692;23.342;2023-09-12T02:36:37;95506.19;;;16.48;59.53
52957;BME280;38819;42.692;23.342;2023-09-12T02:39:02;95502.69;;;16.39;59.62
52957;BME280;38819;42.692;23.342;2023-09-12T02:41:28;95499.63;;;16.32;60.13
52957;BME280;38819;42.692;23.342;2023-09-12T02:43:54;95502.69;;;16.30;59.77
52957;BME280;38819;42.692;23.342;2023-09-12T02:46:19;95501.72;;;16.35;59.61
52957;BME280;38819;42.692;23.342;2023-09-12T02:48:44;95502.03;;;16.34;59.65
52957;BME280;38819;42.692;23.342;2023-09-12T02:51:11;95504.44;;;16.35;59.71
52957;BME280;38819;42.692;23.342;2023-09-12T02:53:36;95503.16;;;16.33;59.98
52957;BME280;38819;42.692;23.342;2023-09-12T02:56:02;95503.00;;;16.38;60.26
52957;BME280;38819;42.692;23.342;2023-09-12T02:58:27;95501.38;;;16.37;60.64
52957;BME280;38819;42.692;23.342;2023-09-12T03:00:53;95505.25;;;16.27;61.03
52957;BME280;38819;42.692;23.342;2023-09-12T03:03:20;95509.25;;;16.29;60.82
52957;BME280;38819;42.692;23.342;2023-09-12T03:05:46;95499.63;;;16.23;60.94
52957;BME280;38819;42.692;23.342;2023-09-12T03:08:11;95505.56;;;16.25;61.00
52957;BME280;38819;42.692;23.342;2023-09-12T03:10:36;95507.31;;;16.30;61.05
52957;BME280;38819;42.692;23.342;2023-09-12T03:13:02;95502.03;;;16.34;61.07
52957;BME280;38819;42.692;23.342;2023-09-12T03:15:27;95514.09;;;16.24;61.50
52957;BME280;38819;42.692;23.342;2023-09-12T03:17:53;95504.94;;;16.20;61.59
52957;BME280;38819;42.692;23.342;2023-09-12T03:20:18;95510.69;;;16.18;61.59
52957;BME280;38819;42.692;23.342;2023-09-12T03:22:45;95520.50;;;16.19;61.45
52957;BME280;38819;42.692;23.342;2023-09-12T03:25:11;95516.94;;;16.10;61.78
52957;BME280;38819;42.692;23.342;2023-09-12T03:27:36;95515.03;;;16.02;61.75
52957;BME280;38819;42.692;23.342;2023-09-12T03:30:02;95514.88;;;15.98;61.63
52957;BME280;38819;42.692;23.342;2023-09-12T03:32:28;95518.84;;;15.92;62.15
52957;BME280;38819;42.692;23.342;2023-09-12T03:34:54;95511.66;;;15.96;61.45
52957;BME280;38819;42.692;23.342;2023-09-12T03:37:19;95519.53;;;15.98;61.84
52957;BME280;38819;42.692;23.342;2023-09-12T03:39:46;95519.53;;;15.98;61.32
52957;BME280;38819;42.692;23.342;2023-09-12T03:42:12;95517.91;;;15.97;61.33
52957;BME280;38819;42.692;23.342;2023-09-12T03:44:37;95524.00;;;15.93;61.13
52957;BME280;38819;42.692;23.342;2023-09-12T03:47:03;95519.19;;;15.90;61.69
52957;BME280;38819;42.692;23.342;2023-09-12T03:49:28;95519.03;;;15.96;61.59
52957;BME280;38819;42.692;23.342;2023-09-12T03:51:54;95531.53;;;15.97;61.29
52957;BME280;38819;42.692;23.342;2023-09-12T03:54:19;95519.19;;;15.90;61.23
52957;BME280;38819;42.692;23.342;2023-09-12T03:56:44;95521.56;;;15.83;61.01
52957;BME280;38819;42.692;23.342;2023-09-12T03:59:10;95526.19;;;15.74;61.30
52957;BME280;38819;42.692;23.342;2023-09-12T04:01:35;95520.75;;;15.74;61.53
52957;BME280;38819;42.692;23.342;2023-09-12T04:04:01;95529.44;;;15.76;61.60
52957;BME280;38819;42.692;23.342;2023-09-12T04:06:27;95526.34;;;15.69;62.40
52957;BME280;38819;42.692;23.342;2023-09-12T04:08:52;95519.75;;;15.70;62.50
52957;BME280;38819;42.692;23.342;2023-09-12T04:11:17;95519.91;;;15.65;62.96
52957;BME280;38819;42.692;23.342;2023-09-12T04:13:43;95518.81;;;15.66;62.86
52957;BME280;38819;42.692;23.342;2023-09-12T04:16:09;95522.63;;;15.65;62.58
52957;BME280;38819;42.692;23.342;2023-09-12T04:18:34;95524.56;;;15.64;62.24
52957;BME280;38819;42.692;23.342;2023-09-12T04:21:00;95529.38;;;15.67;62.34
52957;BME280;38819;42.692;23.342;2023-09-12T04:23:25;95529.38;;;15.67;62.56
52957;BME280;38819;42.692;23.342;2023-09-12T04:25:51;95525.84;;;15.67;62.61
52957;BME280;38819;42.692;23.342;2023-09-12T04:28:16;95529.06;;;15.69;61.82
52957;BME280;38819;42.692;23.342;2023-09-12T04:30:42;95530.22;;;15.77;61.20
52957;BME280;38819;42.692;23.342;2023-09-12T04:33:07;95531.97;;;15.72;61.45
52957;BME280;38819;42.692;23.342;2023-09-12T04:35:33;95536.81;;;15.84;61.26
52957;BME280;38819;42.692;23.342;2023-09-12T04:37:59;95525.13;;;15.84;61.45
52957;BME280;38819;42.692;23.342;2023-09-12T04:40:24;95531.38;;;15.93;60.96
52957;BME280;38819;42.692;23.342;2023-09-12T04:42:50;95532.47;;;15.92;60.61
52957;BME280;38819;42.692;23.342;2023-09-12T04:45:15;95539.22;;;16.03;60.06
52957;BME280;38819;42.692;23.342;2023-09-12T04:47:40;95533.28;;;15.92;60.72
52957;BME280;38819;42.692;23.342;2023-09-12T04:50:06;95538.59;;;15.98;60.00
52957;BME280;38819;42.692;23.342;2023-09-12T04:52:31;95537.63;;;16.02;59.45
52957;BME280;38819;42.692;23.342;2023-09-12T04:54:57;95540.84;;;16.04;60.00
52957;BME280;38819;42.692;23.342;2023-09-12T04:57:22;95545.81;;;16.02;59.94
52957;BME280;38819;42.692;23.342;2023-09-12T04:59:48;95538.44;;;16.03;59.52
52957;BME280;38819;42.692;23.342;2023-09-12T05:02:13;95544.19;;;16.01;59.27
52957;BME280;38819;42.692;23.342;2023-09-12T05:04:38;95550.59;;;15.97;59.68
52957;BME280;38819;42.692;23.342;2023-09-12T05:07:04;95550.13;;;15.95;59.40
52957;BME280;38819;42.692;23.342;2023-09-12T05:09:29;95553.16;;;15.93;59.39
52957;BME280;38819;42.692;23.342;2023-09-12T05:11:55;95548.34;;;15.81;59.36
52957;BME280;38819;42.692;23.342;2023-09-12T05:14:20;95548.81;;;15.92;59.00
52957;BME280;38819;42.692;23.342;2023-09-12T05:16:45;95546.25;;;15.78;59.21
52957;BME280;38819;42.692;23.342;2023-09-12T05:19:11;95543.63;;;15.73;59.48
52957;BME280;38819;42.692;23.342;2023-09-12T05:21:36;95551.50;;;15.74;59.36
52957;BME280;38819;42.692;23.342;2023-09-12T05:24:02;95544.66;;;15.77;59.43
52957;BME280;38819;42.692;23.342;2023-09-12T05:26:27;95552.69;;;15.82;59.32
52957;BME280;38819;42.692;23.342;2023-09-12T05:28:53;95549.00;;;15.96;58.99
52957;BME280;38819;42.692;23.342;2023-09-12T05:31:18;95554.00;;;16.02;58.88
52957;BME280;38819;42.692;23.342;2023-09-12T05:33:43;95551.41;;;16.06;58.63
52957;BME280;38819;42.692;23.342;2023-09-12T05:36:09;95548.22;;;16.13;58.16
52957;BME280;38819;42.692;23.342;2023-09-12T05:38:34;95547.91;;;16.23;57.91
52957;BME280;38819;42.692;23.342;2023-09-12T05:41:00;95551.09;;;16.34;57.72
52957;BME280;38819;42.692;23.342;2023-09-12T05:43:25;95560.72;;;16.40;57.72
52957;BME280;38819;42.692;23.342;2023-09-12T05:45:51;95555.56;;;16.47;57.37
52957;BME280;38819;42.692;23.342;2023-09-12T05:48:17;95559.28;;;16.51;57.50
52957;BME280;38819;42.692;23.342;2023-09-12T05:50:42;95563.09;;;16.59;57.26
52957;BME280;38819;42.692;23.342;2023-09-12T05:53:08;95556.66;;;16.72;57.07
52957;BME280;38819;42.692;23.342;2023-09-12T05:55:33;95558.44;;;16.77;56.74
52957;BME280;38819;42.692;23.342;2023-09-12T05:57:59;95553.31;;;16.84;56.44
52957;BME280;38819;42.692;23.342;2023-09-12T06:00:24;95552.16;;;16.94;56.28
52957;BME280;38819;42.692;23.342;2023-09-12T06:02:50;95556.81;;;17.02;55.95
52957;BME280;38819;42.692;23.342;2023-09-12T06:05:16;95563.38;;;17.10;56.03
52957;BME280;38819;42.692;23.342;2023-09-12T06:07:41;95560.16;;;17.16;55.46
52957;BME280;38819;42.692;23.342;2023-09-12T06:10:08;95559.81;;;17.18;55.34
52957;BME280;38819;42.692;23.342;2023-09-12T06:12:33;95555.47;;;17.17;55.52
52957;BME280;38819;42.692;23.342;2023-09-12T06:15:01;95556.91;;;17.23;55.41
52957;BME280;38819;42.692;23.342;2023-09-12T06:17:27;95550.75;;;17.35;55.20
52957;BME280;38819;42.692;23.342;2023-09-12T06:19:54;95562.28;;;17.40;54.96
52957;BME280;38819;42.692;23.342;2023-09-12T06:22:20;95563.72;;;17.47;54.95
52957;BME280;38819;42.692;23.342;2023-09-12T06:24:45;95556.81;;;17.49;54.79
52957;BME280;38819;42.692;23.342;2023-09-12T06:27:11;95558.06;;;17.52;54.82
52957;BME280;38819;42.692;23.342;2023-09-12T06:29:44;95559.16;;;17.59;54.56
52957;BME280;38819;42.692;23.342;2023-09-12T06:32:10;95559.44;;;17.67;54.08
52957;BME280;38819;42.692;23.342;2023-09-12T06:34:36;95566.13;;;17.78;54.07
52957;BME280;38819;42.692;23.342;2023-09-12T06:37:01;95572.53;;;17.82;53.86
52957;BME280;38819;42.692;23.342;2023-09-12T06:39:27;95572.22;;;17.84;53.94
52957;BME280;38819;42.692;23.342;2023-09-12T06:41:52;95571.53;;;17.95;53.84
52957;BME280;38819;42.692;23.342;2023-09-12T06:44:17;95570.41;;;17.96;53.25
52957;BME280;38819;42.692;23.342;2023-09-12T06:46:43;95574.38;;;17.99;53.78
52957;BME280;38819;42.692;23.342;2023-09-12T06:49:08;95579.69;;;18.04;53.21
52957;BME280;38819;42.692;23.342;2023-09-12T06:51:33;95575.28;;;18.12;52.69
52957;BME280;38819;42.692;23.342;2023-09-12T06:54:02;95568.50;;;18.18;52.33
52957;BME280;38819;42.692;23.342;2023-09-12T06:56:28;95576.63;;;18.27;52.23
52957;BME280;38819;42.692;23.342;2023-09-12T06:58:53;95569.16;;;18.36;51.81
52957;BME280;38819;42.692;23.342;2023-09-12T07:01:20;95570.84;;;18.49;51.73
52957;BME280;38819;42.692;23.342;2023-09-12T07:03:46;95570.00;;;18.49;51.77
52957;BME280;38819;42.692;23.342;2023-09-12T07:06:12;95566.75;;;18.56;51.56
52957;BME280;38819;42.692;23.342;2023-09-12T07:08:37;95569.75;;;18.63;51.23
52957;BME280;38819;42.692;23.342;2023-09-12T07:11:04;95579.94;;;18.75;50.86
52957;BME280;38819;42.692;23.342;2023-09-12T07:13:32;95574.41;;;18.62;51.28
52957;BME280;38819;42.692;23.342;2023-09-12T07:15:58;95574.41;;;18.62;51.70
52957;BME280;38819;42.692;23.342;2023-09-12T07:18:24;95569.22;;;18.69;50.84
52957;BME280;38819;42.692;23.342;2023-09-12T07:21:03;95571.34;;;18.85;49.91
52957;BME280;38819;42.692;23.342;2023-09-12T07:23:29;95575.00;;;18.89;50.05
52957;BME280;38819;42.692;23.342;2023-09-12T07:25:56;95582.31;;;18.97;49.79
52957;BME280;38819;42.692;23.342;2023-09-12T07:28:23;95584.25;;;18.84;49.68
52957;BME280;38819;42.692;23.342;2023-09-12T07:30:49;95577.41;;;18.91;49.14
52957;BME280;38819;42.692;23.342;2023-09-12T07:33:14;95580.47;;;18.89;49.28
52957;BME280;38819;42.692;23.342;2023-09-12T07:35:40;95575.72;;;18.98;49.02
52957;BME280;38819;42.692;23.342;2023-09-12T07:38:05;95573.13;;;19.14;48.35
52957;BME280;38819;42.692;23.342;2023-09-12T07:40:30;95577.81;;;19.26;47.77
52957;BME280;38819;42.692;23.342;2023-09-12T07:42:56;95570.78;;;19.37;47.81
52957;BME280;38819;42.692;23.342;2023-09-12T07:45:21;95573.06;;;19.48;46.64
52957;BME280;38819;42.692;23.342;2023-09-12T07:47:47;95573.88;;;19.60;46.57
52957;BME280;38819;42.692;23.342;2023-09-12T07:50:13;95569.09;;;19.57;46.69
52957;BME280;38819;42.692;23.342;2023-09-12T07:52:38;95567.63;;;19.60;46.52
52957;BME280;38819;42.692;23.342;2023-09-12T07:55:04;95570.59;;;19.55;46.32
52957;BME280;38819;42.692;23.342;2023-09-12T07:57:30;95565.44;;;19.66;46.26
52957;BME280;38819;42.692;23.342;2023-09-12T07:59:56;95567.84;;;19.67;46.11
52957;BME280;38819;42.692;23.342;2023-09-12T08:02:22;95565.88;;;19.68;46.07
52957;BME280;38819;42.692;23.342;2023-09-12T08:04:51;95565.09;;;19.55;45.72
52957;BME280;38819;42.692;23.342;2023-09-12T08:07:17;95562.91;;;19.60;45.74
52957;BME280;38819;42.692;23.342;2023-09-12T08:09:54;95568.19;;;19.66;45.60
52957;BME280;38819;42.692;23.342;2023-09-12T08:12:21;95565.66;;;19.73;45.58
52957;BME280;38819;42.692;23.342;2023-09-12T08:14:47;95561.69;;;19.83;45.73
52957;BME280;38819;42.692;23.342;2023-09-12T08:17:13;95562.50;;;19.95;44.68
52957;BME280;38819;42.692;23.342;2023-09-12T08:19:39;95563.31;;;19.84;44.84
52957;BME280;38819;42.692;23.342;2023-09-12T08:22:06;95561.34;;;19.84;44.41
52957;BME280;38819;42.692;23.342;2023-09-12T08:24:32;95567.63;;;19.97;44.36
52957;BME280;38819;42.692;23.342;2023-09-12T08:26:58;95561.13;;;20.02;44.22
52957;BME280;38819;42.692;23.342;2023-09-12T08:29:23;95561.09;;;20.14;43.85
52957;BME280;38819;42.692;23.342;2023-09-12T08:31:49;95557.41;;;20.22;43.45
52957;BME280;38819;42.692;23.342;2023-09-12T08:34:15;95559.47;;;20.25;43.01
52957;BME280;38819;42.692;23.342;2023-09-12T08:36:40;95560.38;;;20.29;43.18
52957;BME280;38819;42.692;23.342;2023-09-12T08:39:05;95553.25;;;20.41;43.26
52957;BME280;38819;42.692;23.342;2023-09-12T08:41:33;95550.59;;;20.44;42.87
52957;BME280;38819;42.692;23.342;2023-09-12T08:44:00;95553.34;;;20.44;42.73
52957;BME280;38819;42.692;23.342;2023-09-12T08:46:27;95547.03;;;20.56;42.64
52957;BME280;38819;42.692;23.342;2023-09-12T08:48:55;95537.56;;;20.53;42.24
52957;BME280;38819;42.692;23.342;2023-09-12T08:51:23;95539.38;;;20.62;42.27
52957;BME280;38819;42.692;23.342;2023-09-12T08:53:52;95536.63;;;20.62;42.20
52957;BME280;38819;42.692;23.342;2023-09-12T08:56:18;95540.03;;;20.71;41.98
52957;BME280;38819;42.692;23.342;2023-09-12T08:58:44;95548.00;;;20.76;41.58
52957;BME280;38819;42.692;23.342;2023-09-12T09:01:13;95551.75;;;20.84;41.35
52957;BME280;38819;42.692;23.342;2023-09-12T09:03:39;95539.47;;;20.94;41.22
52957;BME280;38819;42.692;23.342;2023-09-12T09:06:06;95548.88;;;21.08;41.01
52957;BME280;38819;42.692;23.342;2023-09-12T09:08:34;95541.69;;;21.20;40.69
52957;BME280;38819;42.692;23.342;2023-09-12T09:11:00;95546.31;;;21.32;41.46
52957;BME280;38819;42.692;23.342;2023-09-12T09:13:32;95540.22;;;21.38;41.65
52957;BME280;38819;42.692;23.342;2023-09-12T09:16:15;95545.22;;;21.49;40.18
52957;BME280;38819;42.692;23.342;2023-09-12T09:18:52;95531.38;;;21.61;39.64
52957;BME280;38819;42.692;23.342;2023-09-12T09:21:22;95528.72;;;21.64;40.36
52957;BME280;38819;42.692;23.342;2023-09-12T09:23:50;95530.31;;;21.65;39.58
52957;BME280;38819;42.692;23.342;2023-09-12T09:26:16;95527.38;;;21.74;39.19
52957;BME280;38819;42.692;23.342;2023-09-12T09:28:41;95524.44;;;21.83;39.01
52957;BME280;38819;42.692;23.342;2023-09-12T09:31:11;95514.69;;;21.86;38.95
52957;BME280;38819;42.692;23.342;2023-09-12T09:33:37;95519.13;;;21.90;38.86
52957;BME280;38819;42.692;23.342;2023-09-12T09:36:05;95515.97;;;21.92;39.22
52957;BME280;38819;42.692;23.342;2023-09-12T09:38:30;95512.09;;;21.93;38.93
52957;BME280;38819;42.692;23.342;2023-09-12T09:40:56;95508.41;;;22.05;38.99
52957;BME280;38819;42.692;23.342;2023-09-12T09:43:21;95510.88;;;22.10;38.96
52957;BME280;38819;42.692;23.342;2023-09-12T09:45:47;95507.50;;;22.16;38.69
52957;BME280;38819;42.692;23.342;2023-09-12T09:48:20;95500.19;;;22.24;38.64
52957;BME280;38819;42.692;23.342;2023-09-12T09:50:46;95504.38;;;22.34;38.35
52957;BME280;38819;42.692;23.342;2023-09-12T09:53:12;95499.22;;;22.32;38.71
52957;BME280;38819;42.692;23.342;2023-09-12T09:55:37;95494.56;;;22.36;38.71
52957;BME280;38819;42.692;23.342;2023-09-12T09:58:05;95490.31;;;22.39;38.15
52957;BME280;38819;42.692;23.342;2023-09-12T10:00:33;95497.97;;;22.49;38.02
52957;BME280;38819;42.692;23.342;2023-09-12T10:02:59;95491.88;;;22.60;37.68
52957;BME280;38819;42.692;23.342;2023-09-12T10:05:32;95484.41;;;22.60;37.36
52957;BME280;38819;42.692;23.342;2023-09-12T10:07:57;95486.88;;;22.65;37.64
52957;BME280;38819;42.692;23.342;2023-09-12T10:10:24;95485.13;;;22.76;36.78
52957;BME280;38819;42.692;23.342;2023-09-12T10:12:58;95484.41;;;22.80;37.07
52957;BME280;38819;42.692;23.342;2023-09-12T10:15:28;95471.13;;;22.85;36.51
52957;BME280;38819;42.692;23.342;2023-09-12T10:17:59;95476.06;;;22.96;36.93
52957;BME280;38819;42.692;23.342;2023-09-12T10:21:04;95468.69;;;23.03;36.99
52957;BME280;38819;42.692;23.342;2023-09-12T10:23:43;95469.34;;;23.16;36.79
52957;BME280;38819;42.692;23.342;2023-09-12T10:26:11;95462.38;;;23.22;36.87
52957;BME280;38819;42.692;23.342;2023-09-12T10:28:40;95458.19;;;23.32;36.23
52957;BME280;38819;42.692;23.342;2023-09-12T10:31:07;95452.13;;;23.46;35.94
52957;BME280;38819;42.692;23.342;2023-09-12T10:33:33;95459.28;;;23.51;35.81
52957;BME280;38819;42.692;23.342;2023-09-12T10:35:59;95451.09;;;23.58;35.45
52957;BME280;38819;42.692;23.342;2023-09-12T10:38:26;95461.50;;;23.68;35.54
52957;BME280;38819;42.692;23.342;2023-09-12T10:40:54;95443.03;;;23.72;34.88
52957;BME280;38819;42.692;23.342;2023-09-12T10:43:21;95454.56;;;23.78;35.24
52957;BME280;38819;42.692;23.342;2023-09-12T10:45:48;95447.16;;;23.82;34.84
52957;BME280;38819;42.692;23.342;2023-09-12T10:48:14;95440.94;;;23.89;34.86
52957;BME280;38819;42.692;23.342;2023-09-12T10:50:40;95447.72;;;23.95;35.18
52957;BME280;38819;42.692;23.342;2023-09-12T10:53:14;95437.91;;;23.97;34.65
52957;BME280;38819;42.692;23.342;2023-09-12T10:55:40;95439.91;;;24.00;34.38
52957;BME280;38819;42.692;23.342;2023-09-12T10:58:08;95427.00;;;24.08;34.90
52957;BME280;38819;42.692;23.342;2023-09-12T11:00:33;95432.19;;;24.13;34.76
52957;BME280;38819;42.692;23.342;2023-09-12T11:05:55;95420.13;;;24.25;34.56
52957;BME280;38819;42.692;23.342;2023-09-12T11:08:21;95424.88;;;24.28;34.42
52957;BME280;38819;42.692;23.342;2023-09-12T11:11:18;95416.56;;;24.25;34.28
52957;BME280;38819;42.692;23.342;2023-09-12T11:13:46;95414.22;;;24.27;34.21
52957;BME280;38819;42.692;23.342;2023-09-12T11:16:14;95409.84;;;24.26;34.23
52957;BME280;38819;42.692;23.342;2023-09-12T11:19:12;95413.91;;;24.35;34.16
52957;BME280;38819;42.692;23.342;2023-09-12T11:21:38;95410.78;;;24.37;33.85
52957;BME280;38819;42.692;23.342;2023-09-12T11:24:04;95417.50;;;24.36;33.71
52957;BME280;38819;42.692;23.342;2023-09-12T11:26:30;95417.97;;;24.45;34.24
52957;BME280;38819;42.692;23.342;2023-09-12T11:28:55;95411.69;;;24.48;34.37
52957;BME280;38819;42.692;23.342;2023-09-12T11:31:25;95403.41;;;24.48;34.78
52957;BME280;38819;42.692;23.342;2023-09-12T11:33:52;95402.00;;;24.62;35.28
52957;BME280;38819;42.692;23.342;2023-09-12T11:36:19;95400.16;;;24.73;34.26
52957;BME280;38819;42.692;23.342;2023-09-12T11:38:49;95404.56;;;24.77;34.58
52957;BME280;38819;42.692;23.342;2023-09-12T11:41:40;95401.44;;;24.83;34.08
52957;BME280;38819;42.692;23.342;2023-09-12T11:44:06;95392.03;;;24.91;34.04
52957;BME280;38819;42.692;23.342;2023-09-12T11:46:34;95395.19;;;24.89;34.02
52957;BME280;38819;42.692;23.342;2023-09-12T11:49:01;95392.06;;;24.94;34.02
52957;BME280;38819;42.692;23.342;2023-09-12T11:51:27;95385.78;;;24.98;33.88
52957;BME280;38819;42.692;23.342;2023-09-12T11:53:52;95379.47;;;25.01;33.40
52957;BME280;38819;42.692;23.342;2023-09-12T11:56:20;95379.84;;;24.99;33.53
52957;BME280;38819;42.692;23.342;2023-09-12T11:58:46;95380.28;;;25.01;33.37
52957;BME280;38819;42.692;23.342;2023-09-12T12:01:12;95377.16;;;25.06;33.32
52957;BME280;38819;42.692;23.342;2023-09-12T12:03:37;95379.19;;;25.13;33.08
52957;BME280;38819;42.692;23.342;2023-09-12T12:06:03;95380.75;;;25.14;33.31
52957;BME280;38819;42.692;23.342;2023-09-12T12:08:30;95373.28;;;25.14;33.37
52957;BME280;38819;42.692;23.342;2023-09-12T12:10:56;95369.78;;;25.21;33.45
52957;BME280;38819;42.692;23.342;2023-09-12T12:13:24;95366.22;;;25.21;33.29
52957;BME280;38819;42.692;23.342;2023-09-12T12:15:49;95376.50;;;25.24;33.61
52957;BME280;38819;42.692;23.342;2023-09-12T12:18:15;95370.66;;;25.32;32.99
52957;BME280;38819;42.692;23.342;2023-09-12T12:20:41;95368.31;;;25.35;33.10
52957;BME280;38819;42.692;23.342;2023-09-12T12:23:07;95364.81;;;25.41;33.19
52957;BME280;38819;42.692;23.342;2023-09-12T12:25:34;95361.28;;;25.44;32.82
52957;BME280;38819;42.692;23.342;2023-09-12T12:28:00;95362.47;;;25.47;32.75
52957;BME280;38819;42.692;23.342;2023-09-12T12:30:33;95358.94;;;25.50;32.37
52957;BME280;38819;42.692;23.342;2023-09-12T12:33:01;95353.81;;;25.56;32.44
52957;BME280;38819;42.692;23.342;2023-09-12T12:35:28;95354.19;;;25.47;32.76
52957;BME280;38819;42.692;23.342;2023-09-12T12:37:55;95354.97;;;25.47;32.29
52957;BME280;38819;42.692;23.342;2023-09-12T12:40:23;95350.25;;;25.48;32.28
52957;BME280;38819;42.692;23.342;2023-09-12T12:42:50;95357.81;;;25.62;32.40
52957;BME280;38819;42.692;23.342;2023-09-12T12:45:17;95348.75;;;25.61;32.54
52957;BME280;38819;42.692;23.342;2023-09-12T12:47:44;95351.06;;;25.56;33.00
52957;BME280;38819;42.692;23.342;2023-09-12T12:52:39;95351.44;;;25.54;32.43
52957;BME280;38819;42.692;23.342;2023-09-12T12:55:12;95344.34;;;25.53;32.91
52957;BME280;38819;42.692;23.342;2023-09-12T12:57:40;95339.63;;;25.61;32.73
52957;BME280;38819;42.692;23.342;2023-09-12T13:00:16;95341.63;;;25.67;32.38
52957;BME280;38819;42.692;23.342;2023-09-12T13:02:43;95340.47;;;25.68;32.04